Flight Track Log - Related Links

Times and Time Zones

All times are in EDT time to prevent confusion due to time zone crossing. See the N379PK flight status page for this flight to view local times or setup timezone preferences in your user account.

Time Position Orientation Groundspeed Altitude Reporting Facility
EDT Latitude Longitude Course Direction KTS MPH feet Rate Location/Type
Wed 08:02:24 PM 47.8844 -122.2853 186° South 138 159 1,600  Level Seattle Center
Wed 08:03:07 PM 47.8525 -122.2900 186° South 177 204 2,100 400 Climbing Seattle Center
Wed 08:05:09 PM 47.7603 -122.2422 161° South 190 219 2,700 328 Climbing Seattle Center
Wed 08:06:10 PM 47.7244 -122.1797 130° Southeast 197 227 3,100 198 Climbing Seattle Center
Wed 08:07:10 PM 47.6944 -122.1139 124° Southeast 190 219 3,100 545 Level Seattle Center
Wed 08:08:11 PM 47.6689 -122.0394 117° Southeast 190 219 4,200 1,525 Climbing Seattle Center
Wed 08:09:12 PM 47.6378 -121.9711 124° Southeast 202 232 6,200 2,238 Climbing Seattle Center
Wed 08:10:17 PM 47.5933 -121.9203 142° Southeast 191 220 8,900 2,311 Climbing Seattle Center
Wed 08:11:14 PM 47.5528 -121.8739 142° Southeast 194 223 10,900 2,016 Climbing Seattle Center
Wed 08:12:19 PM 47.5072 -121.8181 140° Southeast 201 231 13,000 1,048 Climbing Seattle Center
Wed 08:13:20 PM 47.4542 -121.7522 140° Southeast 248 285 13,100 1,279 Climbing Seattle Center
Wed 08:14:21 PM 47.4322 -121.6617 110° East 222 255 15,600 2,311 Climbing Seattle Center
Wed 08:15:22 PM 47.4278 -121.5775 94° East 205 236 17,800 1,967 Climbing Seattle Center
Wed 08:16:23 PM 47.4117 -121.5114 110° East 197 227 19,600 1,770 Climbing Seattle Center
Wed 08:17:24 PM 47.3967 -121.4353 106° East 195 224 21,400 1,672 Climbing Seattle Center
Wed 08:18:25 PM 47.3764 -121.3397 107° East 202 232 23,000 836 Climbing Seattle Center
Wed 08:19:26 PM 47.3558 -121.2486 108° East 232 267 23,100 49 Climbing Seattle Center
Wed 08:20:27 PM 47.3367 -121.1478 106° East 254 292 23,100 590 Level Seattle Center
Wed 08:21:28 PM 47.3156 -121.0503 108° East 253 291 24,300 934 Climbing Seattle Center
Wed 08:22:29 PM 47.2978 -120.9672 107° East 219 252 25,000 393 Climbing Seattle Center
Wed 08:23:30 PM 47.2786 -120.8772 107° East 231 266 25,100 49 Climbing Seattle Center
Wed 08:24:31 PM 47.2542 -120.7703 109° East 240 276 25,100 146 Level Seattle Center
Wed 08:25:33 PM 47.2350 -120.6761 107° East 241 277 25,400 439 Climbing Seattle Center
Wed 08:26:34 PM 47.2175 -120.5933 107° East 217 250 26,000 295 Climbing Seattle Center
Wed 08:27:35 PM 47.1986 -120.5083 108° East 219 252 26,000 -344 Level Seattle Center
Wed 08:28:36 PM 47.1775 -120.4181 109° East 232 267 25,300 -443 Descending Seattle Center
Wed 08:29:37 PM 47.1572 -120.3211 107° East 245 282 25,100 -98 Descending Seattle Center
Wed 08:30:38 PM 47.1367 -120.2269 108° East 245 282 25,100  Level Seattle Center
Wed 08:31:39 PM 47.1164 -120.1367 108° East 236 272 25,100  Level Seattle Center
Wed 08:32:40 PM 47.0967 -120.0458 108° East 234 269 25,100  Level Seattle Center
Wed 08:33:41 PM 47.0772 -119.9547 107° East 235 270 25,100  Level Seattle Center
Wed 08:34:42 PM 47.0558 -119.8642 109° East 235 270 25,100  Level Seattle Center
Wed 08:35:43 PM 47.0322 -119.7556 108° East 234 269 25,100  Level Seattle Center
Wed 08:36:44 PM 47.0114 -119.6664 109° East 233 268 25,100  Level Seattle Center
Wed 08:37:45 PM 46.9939 -119.5783 106° East 227 261 25,100 -49 Level Seattle Center
Wed 08:38:46 PM 46.9739 -119.4914 109° East 227 261 25,000 -49 Descending Seattle Center
Wed 08:39:47 PM 46.9514 -119.4008 110° East 234 269 25,000  Level Seattle Center
Wed 08:40:49 PM 46.9306 -119.3125 109° East 232 267 25,000  Level Seattle Center
Wed 08:41:49 PM 46.9111 -119.2261 108° East 228 262 25,000  Level Seattle Center
Wed 08:42:50 PM 46.8906 -119.1397 109° East 227 261 25,000  Level Seattle Center
Wed 08:43:51 PM 46.8694 -119.0517 109° East 228 262 25,000 -49 Level Seattle Center
Wed 08:44:52 PM 46.8489 -118.9625 109° East 230 265 24,900 -295 Descending Seattle Center
Wed 08:45:53 PM 46.8283 -118.8733 109° East 233 268 24,400 -590 Descending Seattle Center
Wed 08:46:54 PM 46.8103 -118.7522 102° East 249 287 23,700 -639 Descending Seattle Center
Wed 08:47:55 PM 46.7939 -118.6494 103° East 257 296 23,100 -590 Descending Seattle Center
Wed 08:48:56 PM 46.7781 -118.5475 103° East 259 298 22,500 -927 Descending Seattle Center
Wed 08:49:58 PM 46.7631 -118.4408 102° East 264 304 21,200 -1,268 Descending Seattle Center
Wed 08:50:59 PM 46.7456 -118.3306 103° East 274 315 19,900 -1,377 Descending Seattle Center
Wed 08:52:00 PM 46.7283 -118.2211 103° East 278 320 18,400 -1,623 Descending Seattle Center
Wed 08:53:01 PM 46.7133 -118.1175 102° East 267 307 16,600 -1,721 Descending Seattle Center
Wed 08:54:02 PM 46.6978 -118.0189 103° East 255 293 14,900 -1,770 Descending Seattle Center
Wed 08:55:03 PM 46.6833 -117.9239 102° East 243 280 13,000 -1,377 Descending Seattle Center
Wed 08:56:04 PM 46.6672 -117.8364 105° East 226 260 12,100 -934 Descending Seattle Center
Wed 08:57:05 PM 46.6564 -117.7606 102° East 198 228 11,100 -1,115 Descending Seattle Center
Wed 08:59:07 PM 46.6300 -117.5889 103° East 201 231 8,700 -1,082 Descending Seattle Center
Wed 09:00:08 PM 46.6158 -117.5064 104° East 206 237 7,800 -787 Descending Seattle Center
Wed 09:01:09 PM 46.6033 -117.4267 103° East 206 237 7,100 -393 Descending Seattle Center
Wed 09:02:10 PM 46.5847 -117.3583 112° Southeast 206 237 7,000 -246 Descending Seattle Center
Wed 09:03:11 PM 46.5553 -117.3100 132° Southeast 178 205 6,600 -344 Descending Seattle Center
Wed 09:04:12 PM 46.5275 -117.2619 130° Southeast 166 191 6,300 -246 Descending Seattle Center
Wed 09:05:13 PM 46.4994 -117.2169 132° Southeast 157 181 6,100 -738 Descending Seattle Center
Wed 09:06:14 PM 46.4683 -117.1661 132° Southeast 160 184 4,800 -1,240 Descending Seattle Center
Wed 09:07:14 PM 46.4408 -117.1183 130° Southeast 159 183 3,600 -744 Descending Seattle Center
Wed 09:08:15 PM 46.4106 -117.0639 129° Southeast 156 180 3,300 -295 Descending Seattle Center
Wed 09:10:00 PM 46.3745 -117.0154 126° Southeast  Level Estimated

Login

Don't have an account? Register now (free) for customized features, flight alerts, and more!